sensor_id;sensor_type;location;lat;lon;timestamp;P1;durP1;ratioP1;P2;durP2;ratioP2
56242;SDS011;42155;53.096;23.226;2023-02-05T00:01:26;6.95;;;3.40;;
56242;SDS011;42155;53.096;23.226;2023-02-05T00:03:26;7.07;;;3.95;;
56242;SDS011;42155;53.096;23.226;2023-02-05T00:05:26;5.57;;;2.78;;
56242;SDS011;42155;53.096;23.226;2023-02-05T00:07:27;5.82;;;2.88;;
56242;SDS011;42155;53.096;23.226;2023-02-05T00:09:27;10.95;;;3.83;;
56242;SDS011;42155;53.096;23.226;2023-02-05T00:11:27;6.65;;;3.17;;
56242;SDS011;42155;53.096;23.226;2023-02-05T00:13:28;7.32;;;3.45;;
56242;SDS011;42155;53.096;23.226;2023-02-05T00:15:28;9.48;;;3.75;;
56242;SDS011;42155;53.096;23.226;2023-02-05T00:17:28;9.20;;;4.30;;
56242;SDS011;42155;53.096;23.226;2023-02-05T00:19:29;8.55;;;4.00;;
56242;SDS011;42155;53.096;23.226;2023-02-05T00:21:29;6.78;;;3.58;;
56242;SDS011;42155;53.096;23.226;2023-02-05T00:23:29;8.50;;;4.38;;
56242;SDS011;42155;53.096;23.226;2023-02-05T00:25:30;8.13;;;3.95;;
56242;SDS011;42155;53.096;23.226;2023-02-05T00:27:31;8.30;;;4.05;;
56242;SDS011;42155;53.096;23.226;2023-02-05T00:29:32;6.15;;;3.55;;
56242;SDS011;42155;53.096;23.226;2023-02-05T00:31:33;9.05;;;4.03;;
56242;SDS011;42155;53.096;23.226;2023-02-05T00:33:33;6.25;;;3.50;;
56242;SDS011;42155;53.096;23.226;2023-02-05T00:35:33;6.10;;;3.33;;
56242;SDS011;42155;53.096;23.226;2023-02-05T00:37:34;6.50;;;3.67;;
56242;SDS011;42155;53.096;23.226;2023-02-05T00:39:34;6.60;;;3.15;;
56242;SDS011;42155;53.096;23.226;2023-02-05T00:41:35;8.48;;;3.70;;
56242;SDS011;42155;53.096;23.226;2023-02-05T00:43:35;8.15;;;3.95;;
56242;SDS011;42155;53.096;23.226;2023-02-05T00:45:36;7.63;;;3.55;;
56242;SDS011;42155;53.096;23.226;2023-02-05T00:47:36;7.82;;;3.65;;
56242;SDS011;42155;53.096;23.226;2023-02-05T00:49:37;8.80;;;4.18;;
56242;SDS011;42155;53.096;23.226;2023-02-05T00:51:37;5.72;;;3.13;;
56242;SDS011;42155;53.096;23.226;2023-02-05T00:53:38;9.70;;;4.45;;
56242;SDS011;42155;53.096;23.226;2023-02-05T00:55:38;7.82;;;3.58;;
56242;SDS011;42155;53.096;23.226;2023-02-05T00:57:38;7.60;;;3.80;;
56242;SDS011;42155;53.096;23.226;2023-02-05T00:59:39;6.68;;;3.72;;
56242;SDS011;42155;53.096;23.226;2023-02-05T01:01:39;9.20;;;4.18;;
56242;SDS011;42155;53.096;23.226;2023-02-05T01:03:39;4.55;;;2.65;;
56242;SDS011;42155;53.096;23.226;2023-02-05T01:05:40;8.20;;;4.03;;
56242;SDS011;42155;53.096;23.226;2023-02-05T01:07:41;8.80;;;3.38;;
56242;SDS011;42155;53.096;23.226;2023-02-05T01:09:41;7.88;;;3.55;;
56242;SDS011;42155;53.096;23.226;2023-02-05T01:11:41;7.38;;;3.70;;
56242;SDS011;42155;53.096;23.226;2023-02-05T01:13:42;7.35;;;3.83;;
56242;SDS011;42155;53.096;23.226;2023-02-05T01:15:42;8.02;;;3.97;;
56242;SDS011;42155;53.096;23.226;2023-02-05T01:17:43;7.10;;;3.70;;
56242;SDS011;42155;53.096;23.226;2023-02-05T01:19:43;7.40;;;3.55;;
56242;SDS011;42155;53.096;23.226;2023-02-05T01:21:43;6.47;;;3.30;;
56242;SDS011;42155;53.096;23.226;2023-02-05T01:23:44;8.18;;;3.30;;
56242;SDS011;42155;53.096;23.226;2023-02-05T01:25:44;7.68;;;3.95;;
56242;SDS011;42155;53.096;23.226;2023-02-05T01:27:44;7.78;;;3.20;;
56242;SDS011;42155;53.096;23.226;2023-02-05T01:29:45;6.10;;;3.42;;
56242;SDS011;42155;53.096;23.226;2023-02-05T01:31:45;5.03;;;2.88;;
56242;SDS011;42155;53.096;23.226;2023-02-05T01:33:45;7.32;;;3.85;;
56242;SDS011;42155;53.096;23.226;2023-02-05T01:35:46;5.53;;;3.40;;
56242;SDS011;42155;53.096;23.226;2023-02-05T01:37:46;12.43;;;3.83;;
56242;SDS011;42155;53.096;23.226;2023-02-05T01:39:46;8.02;;;4.05;;
56242;SDS011;42155;53.096;23.226;2023-02-05T01:41:47;7.15;;;3.72;;
56242;SDS011;42155;53.096;23.226;2023-02-05T01:46:25;6.82;;;3.58;;
56242;SDS011;42155;53.096;23.226;2023-02-05T01:48:31;8.20;;;4.03;;
56242;SDS011;42155;53.096;23.226;2023-02-05T01:50:47;7.43;;;3.72;;
56242;SDS011;42155;53.096;23.226;2023-02-05T01:52:52;7.95;;;3.72;;
56242;SDS011;42155;53.096;23.226;2023-02-05T01:54:54;10.73;;;4.35;;
56242;SDS011;42155;53.096;23.226;2023-02-05T01:56:55;7.50;;;4.03;;
56242;SDS011;42155;53.096;23.226;2023-02-05T01:59:05;6.15;;;3.05;;
56242;SDS011;42155;53.096;23.226;2023-02-05T02:01:09;9.05;;;4.40;;
56242;SDS011;42155;53.096;23.226;2023-02-05T02:03:10;7.72;;;4.40;;
56242;SDS011;42155;53.096;23.226;2023-02-05T02:05:14;8.60;;;4.30;;
56242;SDS011;42155;53.096;23.226;2023-02-05T02:07:17;8.48;;;3.80;;
56242;SDS011;42155;53.096;23.226;2023-02-05T02:09:20;8.63;;;4.00;;
56242;SDS011;42155;53.096;23.226;2023-02-05T02:11:20;10.27;;;4.65;;
56242;SDS011;42155;53.096;23.226;2023-02-05T02:13:23;8.25;;;4.30;;
56242;SDS011;42155;53.096;23.226;2023-02-05T02:15:26;7.40;;;3.65;;
56242;SDS011;42155;53.096;23.226;2023-02-05T02:17:27;10.18;;;4.50;;
56242;SDS011;42155;53.096;23.226;2023-02-05T02:26:36;11.07;;;4.78;;
56242;SDS011;42155;53.096;23.226;2023-02-05T02:28:59;7.80;;;3.75;;
56242;SDS011;42155;53.096;23.226;2023-02-05T02:33:51;9.15;;;4.95;;
56242;SDS011;42155;53.096;23.226;2023-02-05T02:35:59;8.38;;;4.10;;
56242;SDS011;42155;53.096;23.226;2023-02-05T02:38:11;7.65;;;4.07;;
56242;SDS011;42155;53.096;23.226;2023-02-05T02:40:20;8.50;;;4.03;;
56242;SDS011;42155;53.096;23.226;2023-02-05T02:42:34;6.72;;;3.83;;
56242;SDS011;42155;53.096;23.226;2023-02-05T02:44:48;10.13;;;4.63;;
56242;SDS011;42155;53.096;23.226;2023-02-05T02:46:54;9.27;;;5.00;;
56242;SDS011;42155;53.096;23.226;2023-02-05T02:48:59;8.82;;;3.85;;
56242;SDS011;42155;53.096;23.226;2023-02-05T02:51:04;8.82;;;4.32;;
56242;SDS011;42155;53.096;23.226;2023-02-05T02:53:08;9.20;;;4.13;;
56242;SDS011;42155;53.096;23.226;2023-02-05T02:55:13;8.73;;;4.43;;
56242;SDS011;42155;53.096;23.226;2023-02-05T02:57:16;10.73;;;4.75;;
56242;SDS011;42155;53.096;23.226;2023-02-05T02:59:22;11.20;;;5.35;;
56242;SDS011;42155;53.096;23.226;2023-02-05T03:01:26;10.02;;;4.97;;
56242;SDS011;42155;53.096;23.226;2023-02-05T03:03:29;10.50;;;5.40;;
56242;SDS011;42155;53.096;23.226;2023-02-05T03:05:33;12.10;;;5.90;;
56242;SDS011;42155;53.096;23.226;2023-02-05T03:07:39;11.15;;;5.32;;
56242;SDS011;42155;53.096;23.226;2023-02-05T03:09:51;10.50;;;4.90;;
56242;SDS011;42155;53.096;23.226;2023-02-05T03:11:53;11.48;;;5.28;;
56242;SDS011;42155;53.096;23.226;2023-02-05T03:13:54;13.73;;;5.50;;
56242;SDS011;42155;53.096;23.226;2023-02-05T03:15:55;11.85;;;5.63;;
56242;SDS011;42155;53.096;23.226;2023-02-05T03:17:55;9.07;;;4.90;;
56242;SDS011;42155;53.096;23.226;2023-02-05T03:20:00;10.13;;;4.35;;
56242;SDS011;42155;53.096;23.226;2023-02-05T03:22:05;13.75;;;5.88;;
56242;SDS011;42155;53.096;23.226;2023-02-05T03:24:06;10.00;;;5.18;;
56242;SDS011;42155;53.096;23.226;2023-02-05T03:28:27;9.35;;;4.82;;
56242;SDS011;42155;53.096;23.226;2023-02-05T03:30:29;8.75;;;4.68;;
56242;SDS011;42155;53.096;23.226;2023-02-05T03:42:00;9.93;;;5.22;;
56242;SDS011;42155;53.096;23.226;2023-02-05T03:46:43;9.48;;;4.90;;
56242;SDS011;42155;53.096;23.226;2023-02-05T03:53:32;12.82;;;5.43;;
56242;SDS011;42155;53.096;23.226;2023-02-05T03:55:40;9.73;;;5.07;;
56242;SDS011;42155;53.096;23.226;2023-02-05T03:57:48;11.93;;;4.95;;
56242;SDS011;42155;53.096;23.226;2023-02-05T03:59:55;14.70;;;6.05;;
56242;SDS011;42155;53.096;23.226;2023-02-05T04:01:55;11.38;;;5.53;;
56242;SDS011;42155;53.096;23.226;2023-02-05T04:03:56;9.30;;;4.85;;
56242;SDS011;42155;53.096;23.226;2023-02-05T04:05:56;11.68;;;5.63;;
56242;SDS011;42155;53.096;23.226;2023-02-05T04:07:57;10.68;;;4.95;;
56242;SDS011;42155;53.096;23.226;2023-02-05T04:09:57;12.70;;;5.28;;
56242;SDS011;42155;53.096;23.226;2023-02-05T04:11:57;10.57;;;4.15;;
56242;SDS011;42155;53.096;23.226;2023-02-05T04:13:58;12.63;;;5.68;;
56242;SDS011;42155;53.096;23.226;2023-02-05T04:15:58;13.30;;;5.38;;
56242;SDS011;42155;53.096;23.226;2023-02-05T04:17:58;11.88;;;4.80;;
56242;SDS011;42155;53.096;23.226;2023-02-05T04:19:59;9.02;;;4.25;;
56242;SDS011;42155;53.096;23.226;2023-02-05T04:21:59;11.90;;;5.32;;
56242;SDS011;42155;53.096;23.226;2023-02-05T04:24:00;11.48;;;5.57;;
56242;SDS011;42155;53.096;23.226;2023-02-05T04:26:00;8.85;;;4.15;;
56242;SDS011;42155;53.096;23.226;2023-02-05T04:28:01;9.82;;;4.18;;
56242;SDS011;42155;53.096;23.226;2023-02-05T04:30:01;10.30;;;5.30;;
56242;SDS011;42155;53.096;23.226;2023-02-05T04:32:02;14.13;;;6.13;;
56242;SDS011;42155;53.096;23.226;2023-02-05T04:34:02;15.10;;;5.97;;
56242;SDS011;42155;53.096;23.226;2023-02-05T04:36:02;12.82;;;5.22;;
56242;SDS011;42155;53.096;23.226;2023-02-05T04:38:03;14.07;;;6.22;;
56242;SDS011;42155;53.096;23.226;2023-02-05T04:40:04;14.13;;;5.90;;
56242;SDS011;42155;53.096;23.226;2023-02-05T04:42:05;15.82;;;5.53;;
56242;SDS011;42155;53.096;23.226;2023-02-05T04:44:05;15.20;;;6.53;;
56242;SDS011;42155;53.096;23.226;2023-02-05T04:46:09;14.75;;;6.28;;
56242;SDS011;42155;53.096;23.226;2023-02-05T04:48:10;13.30;;;5.90;;
56242;SDS011;42155;53.096;23.226;2023-02-05T04:50:10;14.65;;;6.43;;
56242;SDS011;42155;53.096;23.226;2023-02-05T04:52:11;14.57;;;6.45;;
56242;SDS011;42155;53.096;23.226;2023-02-05T04:54:11;10.93;;;5.15;;
56242;SDS011;42155;53.096;23.226;2023-02-05T04:56:12;11.68;;;5.35;;
56242;SDS011;42155;53.096;23.226;2023-02-05T04:58:14;8.93;;;4.72;;
56242;SDS011;42155;53.096;23.226;2023-02-05T05:00:15;10.60;;;4.65;;
56242;SDS011;42155;53.096;23.226;2023-02-05T05:02:15;9.68;;;4.43;;
56242;SDS011;42155;53.096;23.226;2023-02-05T05:04:16;12.02;;;5.90;;
56242;SDS011;42155;53.096;23.226;2023-02-05T05:06:16;11.52;;;5.50;;
56242;SDS011;42155;53.096;23.226;2023-02-05T05:08:17;11.75;;;5.85;;
56242;SDS011;42155;53.096;23.226;2023-02-05T05:10:18;11.60;;;5.43;;
56242;SDS011;42155;53.096;23.226;2023-02-05T05:12:18;11.35;;;5.95;;
56242;SDS011;42155;53.096;23.226;2023-02-05T05:14:19;8.73;;;5.07;;
56242;SDS011;42155;53.096;23.226;2023-02-05T05:16:19;12.20;;;5.25;;
56242;SDS011;42155;53.096;23.226;2023-02-05T05:18:19;11.68;;;5.05;;
56242;SDS011;42155;53.096;23.226;2023-02-05T05:20:20;12.60;;;5.70;;
56242;SDS011;42155;53.096;23.226;2023-02-05T05:22:20;10.32;;;5.28;;
56242;SDS011;42155;53.096;23.226;2023-02-05T05:24:20;13.45;;;6.43;;
56242;SDS011;42155;53.096;23.226;2023-02-05T05:26:21;10.05;;;4.75;;
56242;SDS011;42155;53.096;23.226;2023-02-05T05:28:21;11.55;;;5.60;;
56242;SDS011;42155;53.096;23.226;2023-02-05T05:30:21;11.15;;;5.07;;
56242;SDS011;42155;53.096;23.226;2023-02-05T05:32:22;13.40;;;5.47;;
56242;SDS011;42155;53.096;23.226;2023-02-05T05:34:22;10.75;;;5.22;;
56242;SDS011;42155;53.096;23.226;2023-02-05T05:36:23;10.60;;;5.57;;
56242;SDS011;42155;53.096;23.226;2023-02-05T05:38:23;10.95;;;5.07;;
56242;SDS011;42155;53.096;23.226;2023-02-05T05:40:25;8.00;;;4.90;;
56242;SDS011;42155;53.096;23.226;2023-02-05T05:42:25;11.57;;;5.70;;
56242;SDS011;42155;53.096;23.226;2023-02-05T05:44:26;10.88;;;5.55;;
56242;SDS011;42155;53.096;23.226;2023-02-05T05:46:26;11.13;;;5.25;;
56242;SDS011;42155;53.096;23.226;2023-02-05T05:48:27;9.73;;;5.05;;
56242;SDS011;42155;53.096;23.226;2023-02-05T05:50:27;12.00;;;4.90;;
56242;SDS011;42155;53.096;23.226;2023-02-05T05:52:28;10.35;;;4.95;;
56242;SDS011;42155;53.096;23.226;2023-02-05T05:54:28;9.98;;;4.43;;
56242;SDS011;42155;53.096;23.226;2023-02-05T05:56:28;10.43;;;4.95;;
56242;SDS011;42155;53.096;23.226;2023-02-05T05:58:29;9.38;;;4.78;;
56242;SDS011;42155;53.096;23.226;2023-02-05T06:00:29;12.80;;;5.40;;
56242;SDS011;42155;53.096;23.226;2023-02-05T06:02:30;11.63;;;5.00;;
56242;SDS011;42155;53.096;23.226;2023-02-05T06:04:30;10.43;;;5.07;;
56242;SDS011;42155;53.096;23.226;2023-02-05T06:06:30;13.57;;;5.70;;
56242;SDS011;42155;53.096;23.226;2023-02-05T06:08:31;9.73;;;4.57;;
56242;SDS011;42155;53.096;23.226;2023-02-05T06:10:32;11.15;;;5.45;;
56242;SDS011;42155;53.096;23.226;2023-02-05T06:12:32;11.73;;;5.50;;
56242;SDS011;42155;53.096;23.226;2023-02-05T06:14:32;11.35;;;5.32;;
56242;SDS011;42155;53.096;23.226;2023-02-05T06:16:33;11.27;;;5.38;;
56242;SDS011;42155;53.096;23.226;2023-02-05T06:18:33;12.73;;;5.78;;
56242;SDS011;42155;53.096;23.226;2023-02-05T06:20:33;9.90;;;4.95;;
56242;SDS011;42155;53.096;23.226;2023-02-05T06:22:34;11.02;;;4.93;;
56242;SDS011;42155;53.096;23.226;2023-02-05T06:24:34;9.35;;;4.80;;
56242;SDS011;42155;53.096;23.226;2023-02-05T06:26:34;9.90;;;5.45;;
56242;SDS011;42155;53.096;23.226;2023-02-05T06:28:35;10.77;;;5.25;;
56242;SDS011;42155;53.096;23.226;2023-02-05T06:30:35;11.95;;;5.13;;
56242;SDS011;42155;53.096;23.226;2023-02-05T06:32:36;9.48;;;5.13;;
56242;SDS011;42155;53.096;23.226;2023-02-05T06:34:36;13.30;;;5.65;;
56242;SDS011;42155;53.096;23.226;2023-02-05T06:36:36;10.55;;;5.18;;
56242;SDS011;42155;53.096;23.226;2023-02-05T06:38:37;11.00;;;5.30;;
56242;SDS011;42155;53.096;23.226;2023-02-05T06:40:37;11.02;;;4.80;;
56242;SDS011;42155;53.096;23.226;2023-02-05T06:42:37;11.52;;;5.05;;
56242;SDS011;42155;53.096;23.226;2023-02-05T06:44:38;10.38;;;4.95;;
56242;SDS011;42155;53.096;23.226;2023-02-05T06:46:38;12.95;;;5.90;;
56242;SDS011;42155;53.096;23.226;2023-02-05T06:48:38;11.10;;;4.82;;
56242;SDS011;42155;53.096;23.226;2023-02-05T06:50:39;10.43;;;5.10;;
56242;SDS011;42155;53.096;23.226;2023-02-05T06:52:39;11.82;;;5.13;;
56242;SDS011;42155;53.096;23.226;2023-02-05T06:54:40;10.02;;;4.78;;
56242;SDS011;42155;53.096;23.226;2023-02-05T06:56:40;10.50;;;5.40;;
56242;SDS011;42155;53.096;23.226;2023-02-05T06:58:40;12.00;;;5.47;;
56242;SDS011;42155;53.096;23.226;2023-02-05T07:00:41;10.65;;;5.10;;
56242;SDS011;42155;53.096;23.226;2023-02-05T07:02:41;10.77;;;5.15;;
56242;SDS011;42155;53.096;23.226;2023-02-05T07:04:42;9.20;;;4.50;;
56242;SDS011;42155;53.096;23.226;2023-02-05T07:06:42;12.32;;;5.68;;
56242;SDS011;42155;53.096;23.226;2023-02-05T07:08:43;9.75;;;4.43;;
56242;SDS011;42155;53.096;23.226;2023-02-05T07:10:44;11.55;;;5.13;;
56242;SDS011;42155;53.096;23.226;2023-02-05T07:12:44;10.88;;;5.10;;
56242;SDS011;42155;53.096;23.226;2023-02-05T07:14:44;11.68;;;4.68;;
56242;SDS011;42155;53.096;23.226;2023-02-05T07:16:45;9.77;;;4.68;;
56242;SDS011;42155;53.096;23.226;2023-02-05T07:18:45;10.45;;;4.93;;
56242;SDS011;42155;53.096;23.226;2023-02-05T07:20:46;10.38;;;4.82;;
56242;SDS011;42155;53.096;23.226;2023-02-05T07:22:46;8.02;;;4.53;;
56242;SDS011;42155;53.096;23.226;2023-02-05T07:24:47;8.85;;;4.18;;
56242;SDS011;42155;53.096;23.226;2023-02-05T07:26:47;8.77;;;4.90;;
56242;SDS011;42155;53.096;23.226;2023-02-05T07:28:47;10.50;;;4.70;;
56242;SDS011;42155;53.096;23.226;2023-02-05T07:30:48;10.05;;;4.63;;
56242;SDS011;42155;53.096;23.226;2023-02-05T07:32:48;12.20;;;5.00;;
56242;SDS011;42155;53.096;23.226;2023-02-05T07:34:48;10.38;;;4.68;;
56242;SDS011;42155;53.096;23.226;2023-02-05T07:36:49;8.55;;;3.83;;
56242;SDS011;42155;53.096;23.226;2023-02-05T07:38:50;10.02;;;4.38;;
56242;SDS011;42155;53.096;23.226;2023-02-05T07:40:51;9.82;;;4.97;;
56242;SDS011;42155;53.096;23.226;2023-02-05T07:42:51;10.15;;;5.00;;
56242;SDS011;42155;53.096;23.226;2023-02-05T07:44:51;11.80;;;4.63;;
56242;SDS011;42155;53.096;23.226;2023-02-05T07:46:52;14.52;;;5.70;;
56242;SDS011;42155;53.096;23.226;2023-02-05T07:48:53;7.90;;;4.18;;
56242;SDS011;42155;53.096;23.226;2023-02-05T07:50:53;11.93;;;5.28;;
56242;SDS011;42155;53.096;23.226;2023-02-05T07:52:54;10.68;;;5.03;;
56242;SDS011;42155;53.096;23.226;2023-02-05T07:54:54;11.23;;;4.82;;
56242;SDS011;42155;53.096;23.226;2023-02-05T07:56:54;7.68;;;4.30;;
56242;SDS011;42155;53.096;23.226;2023-02-05T07:58:55;9.05;;;4.35;;
56242;SDS011;42155;53.096;23.226;2023-02-05T08:00:58;9.05;;;4.97;;
56242;SDS011;42155;53.096;23.226;2023-02-05T08:02:59;7.88;;;4.10;;
56242;SDS011;42155;53.096;23.226;2023-02-05T08:05:00;10.93;;;4.60;;
56242;SDS011;42155;53.096;23.226;2023-02-05T08:07:00;10.35;;;5.13;;
56242;SDS011;42155;53.096;23.226;2023-02-05T08:09:01;10.13;;;4.38;;
56242;SDS011;42155;53.096;23.226;2023-02-05T08:11:03;7.82;;;3.85;;
56242;SDS011;42155;53.096;23.226;2023-02-05T08:13:04;8.23;;;4.03;;
56242;SDS011;42155;53.096;23.226;2023-02-05T08:15:05;6.95;;;3.30;;
56242;SDS011;42155;53.096;23.226;2023-02-05T08:17:05;9.18;;;4.38;;
56242;SDS011;42155;53.096;23.226;2023-02-05T08:19:05;9.45;;;4.30;;
56242;SDS011;42155;53.096;23.226;2023-02-05T08:21:07;9.57;;;4.15;;
56242;SDS011;42155;53.096;23.226;2023-02-05T08:23:07;8.95;;;4.22;;
56242;SDS011;42155;53.096;23.226;2023-02-05T08:25:09;10.15;;;4.20;;
56242;SDS011;42155;53.096;23.226;2023-02-05T08:27:12;8.68;;;4.15;;
56242;SDS011;42155;53.096;23.226;2023-02-05T08:29:12;15.60;;;5.82;;
56242;SDS011;42155;53.096;23.226;2023-02-05T08:31:14;15.05;;;5.43;;
56242;SDS011;42155;53.096;23.226;2023-02-05T08:33:16;16.67;;;5.28;;
56242;SDS011;42155;53.096;23.226;2023-02-05T08:35:16;16.55;;;7.03;;
56242;SDS011;42155;53.096;23.226;2023-02-05T08:37:17;9.80;;;4.60;;
56242;SDS011;42155;53.096;23.226;2023-02-05T08:39:18;12.68;;;5.93;;
56242;SDS011;42155;53.096;23.226;2023-02-05T08:41:18;9.93;;;4.13;;
56242;SDS011;42155;53.096;23.226;2023-02-05T08:43:18;8.95;;;4.28;;
56242;SDS011;42155;53.096;23.226;2023-02-05T08:45:19;11.88;;;4.53;;
56242;SDS011;42155;53.096;23.226;2023-02-05T08:47:20;10.93;;;5.22;;
56242;SDS011;42155;53.096;23.226;2023-02-05T08:49:20;12.75;;;4.95;;
56242;SDS011;42155;53.096;23.226;2023-02-05T08:51:21;9.20;;;4.78;;
56242;SDS011;42155;53.096;23.226;2023-02-05T08:53:21;11.43;;;5.18;;
56242;SDS011;42155;53.096;23.226;2023-02-05T08:55:21;8.93;;;3.80;;
56242;SDS011;42155;53.096;23.226;2023-02-05T08:57:25;11.05;;;4.40;;
56242;SDS011;42155;53.096;23.226;2023-02-05T08:59:27;10.82;;;4.38;;
56242;SDS011;42155;53.096;23.226;2023-02-05T09:01:28;13.60;;;5.50;;
56242;SDS011;42155;53.096;23.226;2023-02-05T09:03:28;9.60;;;4.35;;
56242;SDS011;42155;53.096;23.226;2023-02-05T09:05:29;11.07;;;4.78;;
56242;SDS011;42155;53.096;23.226;2023-02-05T09:07:29;8.60;;;4.90;;
56242;SDS011;42155;53.096;23.226;2023-02-05T09:09:31;8.68;;;4.20;;
56242;SDS011;42155;53.096;23.226;2023-02-05T09:11:31;11.85;;;5.30;;
56242;SDS011;42155;53.096;23.226;2023-02-05T09:13:32;10.73;;;5.05;;
56242;SDS011;42155;53.096;23.226;2023-02-05T09:15:33;9.35;;;4.05;;
56242;SDS011;42155;53.096;23.226;2023-02-05T09:17:33;10.13;;;4.68;;
56242;SDS011;42155;53.096;23.226;2023-02-05T09:19:34;10.63;;;5.22;;
56242;SDS011;42155;53.096;23.226;2023-02-05T09:21:39;9.05;;;4.18;;
56242;SDS011;42155;53.096;23.226;2023-02-05T09:23:40;10.73;;;5.20;;
56242;SDS011;42155;53.096;23.226;2023-02-05T09:25:41;9.52;;;4.63;;
56242;SDS011;42155;53.096;23.226;2023-02-05T09:27:42;9.55;;;4.32;;
56242;SDS011;42155;53.096;23.226;2023-02-05T09:29:42;8.48;;;4.57;;
56242;SDS011;42155;53.096;23.226;2023-02-05T09:31:42;7.32;;;3.90;;
56242;SDS011;42155;53.096;23.226;2023-02-05T09:33:43;8.80;;;4.07;;
56242;SDS011;42155;53.096;23.226;2023-02-05T09:35:44;7.80;;;3.80;;
56242;SDS011;42155;53.096;23.226;2023-02-05T09:37:44;8.05;;;4.15;;
56242;SDS011;42155;53.096;23.226;2023-02-05T09:39:44;7.60;;;3.90;;
56242;SDS011;42155;53.096;23.226;2023-02-05T09:51:19;6.65;;;3.08;;
56242;SDS011;42155;53.096;23.226;2023-02-05T09:53:24;8.13;;;3.72;;
56242;SDS011;42155;53.096;23.226;2023-02-05T09:55:31;10.18;;;3.78;;
56242;SDS011;42155;53.096;23.226;2023-02-05T09:57:35;6.63;;;3.22;;
56242;SDS011;42155;53.096;23.226;2023-02-05T09:59:40;6.63;;;3.60;;
56242;SDS011;42155;53.096;23.226;2023-02-05T10:01:45;7.95;;;3.45;;
56242;SDS011;42155;53.096;23.226;2023-02-05T10:03:53;8.82;;;3.65;;
56242;SDS011;42155;53.096;23.226;2023-02-05T10:10:43;5.65;;;3.15;;
56242;SDS011;42155;53.096;23.226;2023-02-05T10:24:05;7.93;;;3.85;;
56242;SDS011;42155;53.096;23.226;2023-02-05T10:35:46;6.18;;;3.30;;
56242;SDS011;42155;53.096;23.226;2023-02-05T10:37:55;6.30;;;3.70;;
56242;SDS011;42155;53.096;23.226;2023-02-05T10:39:56;5.95;;;3.40;;
56242;SDS011;42155;53.096;23.226;2023-02-05T10:44:33;5.68;;;3.20;;
56242;SDS011;42155;53.096;23.226;2023-02-05T10:46:39;8.55;;;3.83;;
56242;SDS011;42155;53.096;23.226;2023-02-05T10:48:44;8.70;;;4.00;;
56242;SDS011;42155;53.096;23.226;2023-02-05T10:50:52;7.97;;;3.33;;
56242;SDS011;42155;53.096;23.226;2023-02-05T10:52:54;6.88;;;3.80;;
56242;SDS011;42155;53.096;23.226;2023-02-05T10:54:55;7.03;;;3.60;;
56242;SDS011;42155;53.096;23.226;2023-02-05T10:56:56;9.02;;;4.03;;
56242;SDS011;42155;53.096;23.226;2023-02-05T10:58:57;6.95;;;3.55;;
56242;SDS011;42155;53.096;23.226;2023-02-05T11:01:00;5.20;;;2.53;;
56242;SDS011;42155;53.096;23.226;2023-02-05T11:03:03;5.45;;;3.10;;
56242;SDS011;42155;53.096;23.226;2023-02-05T11:07:33;8.93;;;4.22;;
56242;SDS011;42155;53.096;23.226;2023-02-05T11:09:37;7.30;;;3.38;;
56242;SDS011;42155;53.096;23.226;2023-02-05T11:11:37;8.60;;;4.00;;
56242;SDS011;42155;53.096;23.226;2023-02-05T11:13:39;7.22;;;3.75;;
56242;SDS011;42155;53.096;23.226;2023-02-05T11:15:53;7.65;;;3.90;;
56242;SDS011;42155;53.096;23.226;2023-02-05T11:17:58;6.82;;;3.55;;
56242;SDS011;42155;53.096;23.226;2023-02-05T11:22:24;7.47;;;3.63;;
56242;SDS011;42155;53.096;23.226;2023-02-05T11:24:36;5.25;;;3.10;;
56242;SDS011;42155;53.096;23.226;2023-02-05T11:26:37;6.45;;;2.85;;
56242;SDS011;42155;53.096;23.226;2023-02-05T11:28:38;8.25;;;4.38;;
56242;SDS011;42155;53.096;23.226;2023-02-05T11:30:38;10.38;;;4.13;;
56242;SDS011;42155;53.096;23.226;2023-02-05T11:32:38;7.10;;;3.80;;
56242;SDS011;42155;53.096;23.226;2023-02-05T11:34:39;7.15;;;4.07;;
56242;SDS011;42155;53.096;23.226;2023-02-05T11:36:46;6.57;;;4.03;;
56242;SDS011;42155;53.096;23.226;2023-02-05T11:38:53;6.22;;;3.50;;
56242;SDS011;42155;53.096;23.226;2023-02-05T11:40:55;10.98;;;3.60;;
56242;SDS011;42155;53.096;23.226;2023-02-05T11:45:27;9.07;;;4.30;;
56242;SDS011;42155;53.096;23.226;2023-02-05T11:47:30;9.13;;;4.53;;
56242;SDS011;42155;53.096;23.226;2023-02-05T11:49:35;8.43;;;4.20;;
56242;SDS011;42155;53.096;23.226;2023-02-05T11:53:48;8.77;;;3.90;;
56242;SDS011;42155;53.096;23.226;2023-02-05T11:55:54;7.82;;;3.83;;
56242;SDS011;42155;53.096;23.226;2023-02-05T11:58:39;10.00;;;4.03;;
56242;SDS011;42155;53.096;23.226;2023-02-05T12:00:22;8.27;;;3.67;;
56242;SDS011;42155;53.096;23.226;2023-02-05T12:04:26;8.23;;;3.65;;
56242;SDS011;42155;53.096;23.226;2023-02-05T12:13:00;7.15;;;3.83;;
56242;SDS011;42155;53.096;23.226;2023-02-05T12:15:18;7.30;;;3.57;;
56242;SDS011;42155;53.096;23.226;2023-02-05T12:20:12;7.45;;;3.92;;
56242;SDS011;42155;53.096;23.226;2023-02-05T12:27:15;6.95;;;3.15;;
56242;SDS011;42155;53.096;23.226;2023-02-05T12:32:15;6.57;;;3.53;;
56242;SDS011;42155;53.096;23.226;2023-02-05T12:53:58;6.50;;;3.65;;
56242;SDS011;42155;53.096;23.226;2023-02-05T12:58:41;9.25;;;3.78;;
56242;SDS011;42155;53.096;23.226;2023-02-05T13:03:03;5.47;;;3.20;;
56242;SDS011;42155;53.096;23.226;2023-02-05T13:05:20;6.68;;;3.53;;
56242;SDS011;42155;53.096;23.226;2023-02-05T13:07:34;8.18;;;3.88;;
56242;SDS011;42155;53.096;23.226;2023-02-05T13:09:42;11.10;;;4.50;;
56242;SDS011;42155;53.096;23.226;2023-02-05T13:11:50;7.93;;;3.65;;
56242;SDS011;42155;53.096;23.226;2023-02-05T13:13:57;7.53;;;3.85;;
56242;SDS011;42155;53.096;23.226;2023-02-05T13:16:00;7.80;;;4.03;;
56242;SDS011;42155;53.096;23.226;2023-02-05T13:18:05;8.68;;;4.07;;
56242;SDS011;42155;53.096;23.226;2023-02-05T13:22:52;6.55;;;3.42;;
56242;SDS011;42155;53.096;23.226;2023-02-05T13:24:56;7.82;;;3.58;;
56242;SDS011;42155;53.096;23.226;2023-02-05T13:27:00;6.28;;;3.63;;
56242;SDS011;42155;53.096;23.226;2023-02-05T13:29:03;10.95;;;4.45;;
56242;SDS011;42155;53.096;23.226;2023-02-05T13:33:15;10.63;;;4.43;;
56242;SDS011;42155;53.096;23.226;2023-02-05T13:35:16;10.73;;;4.13;;
56242;SDS011;42155;53.096;23.226;2023-02-05T13:39:36;8.25;;;3.13;;
56242;SDS011;42155;53.096;23.226;2023-02-05T13:58:22;11.57;;;4.28;;
56242;SDS011;42155;53.096;23.226;2023-02-05T14:00:24;9.95;;;4.18;;
56242;SDS011;42155;53.096;23.226;2023-02-05T14:02:32;11.43;;;4.38;;
56242;SDS011;42155;53.096;23.226;2023-02-05T14:04:43;9.00;;;4.05;;
56242;SDS011;42155;53.096;23.226;2023-02-05T14:06:49;7.40;;;3.75;;
56242;SDS011;42155;53.096;23.226;2023-02-05T14:16:36;10.57;;;4.45;;
56242;SDS011;42155;53.096;23.226;2023-02-05T14:20:41;8.68;;;4.00;;
56242;SDS011;42155;53.096;23.226;2023-02-05T14:22:42;8.30;;;4.45;;
56242;SDS011;42155;53.096;23.226;2023-02-05T14:24:47;9.68;;;4.97;;
56242;SDS011;42155;53.096;23.226;2023-02-05T14:26:49;12.27;;;4.85;;
56242;SDS011;42155;53.096;23.226;2023-02-05T14:28:54;10.80;;;4.30;;
56242;SDS011;42155;53.096;23.226;2023-02-05T14:32:56;9.65;;;4.15;;
56242;SDS011;42155;53.096;23.226;2023-02-05T14:35:01;9.40;;;4.13;;
56242;SDS011;42155;53.096;23.226;2023-02-05T14:37:03;8.10;;;4.20;;
56242;SDS011;42155;53.096;23.226;2023-02-05T14:39:05;8.25;;;4.20;;